Flight Track Log - Related Links

Times and Time Zones

All times are in EDT time to prevent confusion due to time zone crossing. See the N555LG flight status page for this flight to view local times or setup timezone preferences in your user account.

Time Position Orientation Groundspeed Altitude Reporting Facility
EDT Latitude Longitude Course Direction KTS MPH feet Rate Location/Type
Wed 05:24:50 PM 38.8167 -94.9000 151° Southeast 161 185 1,800  Level Kansas City TRACON
Wed 05:25:13 PM 38.8042 -94.8911 151° Southeast 181 208 2,300 2,471 Climbing Kansas City Center
Wed 05:26:15 PM 38.7422 -94.9067 191° South 204 235 5,300 2,419 Climbing Kansas City Center
Wed 05:27:17 PM 38.7047 -94.9725 234° Southwest 239 275 7,300 2,468 Climbing Kansas City Center
Wed 05:28:19 PM 38.6547 -95.0556 232° Southwest 260 299 10,400 2,806 Climbing Kansas City Center
Wed 05:29:21 PM 38.6094 -95.1272 231° Southwest 269 310 13,100 1,742 Climbing Kansas City Center
Wed 05:30:23 PM 38.5525 -95.2169 231° Southwest 298 343 14,000 435 Climbing Kansas City Center
Wed 05:31:25 PM 38.5172 -95.3175 246° West 318 366 14,000  Level Kansas City Center
Wed 05:32:28 PM 38.4883 -95.4383 253° West 318 366 14,000 -48 Level Kansas City Center
Wed 05:33:30 PM 38.4583 -95.5389 249° West 318 366 13,900 -48 Descending Kansas City Center
Wed 05:34:32 PM 38.4278 -95.6603 252° West 319 367 13,900  Level Kansas City Center
Wed 05:35:34 PM 38.3972 -95.7608 249° West 318 366 13,900  Level Kansas City Center
Wed 05:36:36 PM 38.3697 -95.8633 251° West 318 366 13,900  Level Kansas City Center
Wed 05:37:38 PM 38.3350 -95.9847 250° West 325 374 13,900 48 Level Kansas City Center
Wed 05:38:40 PM 38.3003 -96.0833 246° West 318 366 14,000 48 Climbing Kansas City Center
Wed 05:39:42 PM 38.2453 -96.1908 237° Southwest 322 371 14,000  Level Kansas City Center
Wed 05:40:44 PM 38.2033 -96.2856 241° Southwest 322 371 14,000 -677 Level Kansas City Center
Wed 05:41:46 PM 38.1572 -96.3781 238° Southwest 317 365 12,600 -1,355 Descending Kansas City Center
Wed 05:42:48 PM 38.1144 -96.4719 240° Southwest 308 354 11,200 -1,258 Descending Kansas City Center
Wed 05:43:50 PM 38.0619 -96.5792 238° Southwest 298 343 10,000 -800 Descending Kansas City Center
Wed 05:44:18 PM 38.0392 -96.6269 239° Southwest 296 341 10,000  Level Kansas City Center
Wed 05:44:52 PM 38.0206 -96.6694 241° Southwest 297 342 10,000  Level Kansas City Center
Wed 05:45:07 PM 38.0061 -96.6936 233° Southwest 296 341 10,000 -677 Level Kansas City Center
Wed 05:45:54 PM 37.9772 -96.7578 240° Southwest 294 338 9,300 -1,211 Descending Kansas City Center
Wed 05:46:56 PM 37.9392 -96.8375 239° Southwest 261 300 7,800 -1,575 Descending Kansas City Center
Wed 05:47:14 PM 37.9250 -96.8661 238° Southwest 243 280 7,200 -1,452 Descending Kansas City Center
Wed 05:47:58 PM 37.9111 -96.9142 250° West 252 290 6,300 -1,254 Descending Kansas City Center
Wed 05:48:21 PM 37.8964 -96.9583 247° West 257 296 5,800 -968 Descending Kansas City Center
Wed 05:49:00 PM 37.8817 -96.9975 245° Southwest 257 296 5,300 -800 Descending Kansas City Center
Wed 05:49:21 PM 37.8644 -97.0378 242° Southwest 256 295 5,000 -871 Descending Kansas City Center
Wed 05:50:02 PM 37.8461 -97.0964 248° West 257 296 4,400 -1,154 Descending Kansas City Center
Wed 05:51:05 PM 37.8139 -97.1767 243° Southwest 256 295 3,000 -672 Descending Kansas City Center
Wed 05:52:07 PM 37.7861 -97.2519 245° Southwest 249 287 3,000  Level Kansas City Center
Wed 05:53:09 PM 37.7633 -97.3147 245° Southwest 221 254 3,000 -48 Level Kansas City Center
Wed 05:54:11 PM 37.7414 -97.3761 246° West 202 232 2,900 -508 Descending Kansas City Center
Wed 05:55:19 PM 37.6908 -97.4042 204° Southwest 134 154 1,900 -677 Descending Kansas City Center
Wed 05:56:15 PM 37.6678 -97.4131 197° South 143 165 1,500 -429 Descending Kansas City Center
Wed 05:58:00 PM 37.6499 -97.4331 235° Southwest  Level Estimated
Wed 06:05:00 PM 37.6499 -97.4331 235° Southwest  Level Estimated

Login

Don't have an account? Register now (free) for customized features, flight alerts, and more!